Time;durP1;ratioP1;P1;durP2;ratioP2;P2;SDS_P1;SDS_P2;PMS_P1;PMS_P2;Temp;Humidity;BMP_temperature;BMP_pressure;BME280_temperature;BME280_humidity;BME280_pressure;Samples;Min_cycle;Max_cycle;Signal;HPM_P1;HPM_P2
2022/03/02 05:58:47;;;;;;;57.22;27.40;;;5.10;99.90;;;;;;6055870;23;20013;-89
2022/03/02 06:01:21;;;;;;;57.75;26.17;;;5.10;99.90;;;;;;6103899;23;20030;-91
2022/03/02 06:05:01;;;;;;;58.83;26.98;;;5.10;99.90;;;;;;6129321;23;20144;-91
2022/03/02 06:08:02;;;;;;;50.60;25.23;;;5.00;99.90;;;;;;6079566;23;20454;-91
2022/03/02 06:10:41;;;;;;;59.88;27.38;;;5.00;99.90;;;;;;6132126;23;20033;-91
2022/03/02 06:13:21;;;;;;;57.17;28.33;;;5.00;99.90;;;;;;6155895;23;20021;-91
2022/03/02 06:15:55;;;;;;;58.13;26.52;;;5.00;99.90;;;;;;6106008;23;20013;-91
2022/03/02 06:18:47;;;;;;;56.25;28.13;;;5.00;99.90;;;;;;6132771;23;20037;-90
2022/03/02 06:21:30;;;;;;;56.63;25.15;;;5.00;99.90;;;;;;6127199;23;20069;-91
2022/03/02 06:24:14;;;;;;;59.42;27.10;;;4.90;99.90;;;;;;6082130;23;20108;-91
2022/03/02 06:46:13;;;;;;;61.42;26.98;;;4.90;99.90;;;;;;6035261;23;20079;-91
2022/03/02 06:49:31;;;;;;;52.75;25.55;;;4.80;99.90;;;;;;6044482;23;20509;-91
2022/03/02 06:53:43;;;;;;;57.50;24.38;;;4.80;99.90;;;;;;5996478;23;20447;-91
2022/03/02 06:56:48;;;;;;;49.03;21.23;;;4.80;99.90;;;;;;5925660;24;20026;-90
2022/03/02 06:59:35;;;;;;;53.63;24.92;;;4.90;99.90;;;;;;6038273;23;20042;-91
2022/03/02 07:02:42;;;;;;;63.35;28.13;;;4.90;99.90;;;;;;6015440;23;20456;-91
2022/03/02 07:05:48;;;;;;;56.75;25.48;;;4.90;99.90;;;;;;6038971;23;20030;-91
2022/03/02 07:08:48;;;;;;;53.33;24.25;;;4.90;99.90;;;;;;6015522;23;20107;-91
2022/03/02 07:11:52;;;;;;;56.47;26.73;;;4.90;99.90;;;;;;6014833;23;20075;-91
2022/03/02 07:15:13;;;;;;;58.47;27.52;;;4.90;99.90;;;;;;6022860;23;20507;-91
2022/03/02 07:18:39;;;;;;;56.08;27.83;;;4.90;99.90;;;;;;6012075;23;20042;-91
2022/03/02 07:21:48;;;;;;;56.17;28.35;;;4.90;99.90;;;;;;6011375;23;20019;-91
2022/03/02 07:25:22;;;;;;;59.03;28.27;;;4.90;99.90;;;;;;6015239;23;20536;-91
2022/03/02 07:28:06;;;;;;;61.13;26.48;;;4.90;99.90;;;;;;6038583;23;20027;-91
2022/03/02 07:31:25;;;;;;;56.97;27.48;;;4.90;99.90;;;;;;6126797;23;20150;-91
2022/03/02 07:38:39;;;;;;;49.08;24.60;;;4.90;99.90;;;;;;6097307;23;20464;-91
2022/03/02 07:41:38;;;;;;;51.20;26.67;;;4.90;99.90;;;;;;6103270;23;20026;-91
2022/03/02 07:44:28;;;;;;;55.35;27.52;;;5.00;99.90;;;;;;6104448;23;20014;-91
2022/03/02 07:47:14;;;;;;;62.67;30.83;;;4.90;99.90;;;;;;6126595;23;20022;-91
2022/03/02 07:49:55;;;;;;;;;;;5.00;99.90;;;;;;6104454;23;20065;-92
2022/03/02 07:52:28;;;;;;;55.65;25.23;;;5.00;99.90;;;;;;6126974;23;20344;-91
2022/03/02 07:55:09;;;;;;;49.75;24.98;;;5.00;99.90;;;;;;6128060;23;20018;-91
2022/03/02 07:57:50;;;;;;;57.72;25.65;;;5.00;99.90;;;;;;6078411;23;20014;-90
2022/03/02 08:00:35;;;;;;;55.05;27.55;;;5.10;99.90;;;;;;6126254;23;20014;-90
2022/03/02 08:03:34;;;;;;;52.10;23.83;;;5.10;99.90;;;;;;6100730;23;20049;-90
2022/03/02 08:06:12;;;;;;;54.50;23.73;;;5.10;99.90;;;;;;6126055;23;20097;-91
2022/03/02 08:09:11;;;;;;;56.78;27.98;;;5.20;99.90;;;;;;6100545;23;20026;-91
2022/03/02 08:11:50;;;;;;;57.05;24.00;;;5.20;99.90;;;;;;6101521;23;20102;-90
2022/03/02 08:15:00;;;;;;;52.30;23.73;;;5.20;99.90;;;;;;6099561;23;20022;-91
2022/03/02 08:17:42;;;;;;;58.58;26.05;;;5.20;99.90;;;;;;6101427;23;20101;-90
2022/03/02 08:20:47;;;;;;;49.92;25.58;;;5.20;99.90;;;;;;6127310;23;20026;-91
2022/03/02 08:23:36;;;;;;;52.65;25.13;;;5.30;99.90;;;;;;6101046;23;20026;-91
2022/03/02 08:26:22;;;;;;;55.97;25.00;;;5.30;99.90;;;;;;6102349;23;20081;-91
2022/03/02 08:29:17;;;;;;;50.67;24.88;;;5.50;99.90;;;;;;6081830;23;20026;-91
2022/03/02 08:32:09;;;;;;;54.03;24.92;;;5.50;99.90;;;;;;6127272;23;20022;-91
2022/03/02 08:34:50;;;;;;;57.33;28.50;;;5.60;99.90;;;;;;6115101;23;20005;-92
2022/03/02 08:37:26;;;;;;;47.88;23.73;;;5.50;99.90;;;;;;6151492;23;20010;-90
2022/03/02 08:40:03;;;;;;;46.97;23.52;;;5.60;99.90;;;;;;6134848;23;20025;-91
2022/03/02 08:42:44;;;;;;;53.63;24.92;;;5.70;99.90;;;;;;6102966;23;20022;-91
2022/03/02 08:45:50;;;;;;;49.42;25.38;;;5.80;99.90;;;;;;6103501;23;20026;-92
2022/03/02 08:54:38;;;;;;;61.05;25.48;;;5.80;99.90;;;;;;6151877;23;20040;-90
2022/03/02 08:57:27;;;;;;;42.47;22.80;;;5.80;99.90;;;;;;6129358;23;20045;-90
2022/03/02 10:00:07;;;;;;;38.65;20.65;;;6.10;99.90;;;;;;6155424;23;20092;-92
2022/03/02 10:02:56;;;;;;;49.50;22.95;;;6.20;99.90;;;;;;6155777;23;20018;-91
2022/03/02 10:05:42;;;;;;;43.75;21.90;;;6.20;99.90;;;;;;6152313;23;20025;-89
2022/03/02 10:08:19;;;;;;;45.33;22.90;;;6.00;99.90;;;;;;6132792;23;20032;-91
2022/03/02 10:11:06;;;;;;;39.03;21.13;;;6.10;99.90;;;;;;6108743;23;20032;-91
2022/03/02 10:14:25;;;;;;;42.58;21.73;;;6.10;99.90;;;;;;6132779;23;20018;-90
2022/03/02 10:17:41;;;;;;;39.33;20.75;;;6.20;99.90;;;;;;6148060;23;20407;-91
2022/03/02 10:20:22;;;;;;;46.63;22.83;;;6.10;99.90;;;;;;6133175;23;20017;-91
2022/03/02 10:23:29;;;;;;;43.17;22.77;;;6.20;99.90;;;;;;6131336;23;20029;-91
2022/03/02 10:26:17;;;;;;;51.28;24.23;;;6.20;99.90;;;;;;6154874;23;20018;-92
2022/03/02 10:29:02;;;;;;;47.85;22.73;;;6.20;99.90;;;;;;6132935;23;20326;-92
2022/03/02 10:32:08;;;;;;;46.28;22.95;;;6.20;99.90;;;;;;6132779;23;20014;-92
2022/03/02 10:35:49;;;;;;;49.53;23.23;;;6.30;99.90;;;;;;6155634;23;20116;-92
2022/03/02 10:38:43;;;;;;;49.88;23.80;;;6.30;99.90;;;;;;6132994;23;20014;-92
2022/03/02 10:41:14;;;;;;;44.92;22.05;;;6.30;99.90;;;;;;6132925;23;20437;-91
2022/03/02 10:43:58;;;;;;;44.00;21.75;;;6.30;99.90;;;;;;6108228;23;20032;-90
2022/03/02 10:46:32;;;;;;;40.55;19.38;;;6.40;99.90;;;;;;6156101;23;20353;-91
2022/03/02 10:49:19;;;;;;;46.75;22.60;;;6.50;99.90;;;;;;6131008;23;20129;-91
2022/03/02 10:51:52;;;;;;;47.40;23.25;;;6.60;99.90;;;;;;6131344;23;20021;-91
2022/03/02 10:54:39;;;;;;;49.25;24.17;;;6.60;99.90;;;;;;6156017;23;20025;-91
2022/03/02 10:57:24;;;;;;;40.10;20.13;;;6.60;99.90;;;;;;6110161;23;20100;-91
2022/03/02 11:00:03;;;;;;;51.97;25.40;;;6.60;99.90;;;;;;6131298;23;20104;-91
2022/03/02 11:02:41;;;;;;;49.85;24.52;;;6.50;99.90;;;;;;6131565;23;20013;-92
2022/03/02 11:05:17;;;;;;;45.90;23.20;;;6.60;99.90;;;;;;6156453;23;20017;-92
2022/03/02 11:08:03;;;;;;;44.45;22.75;;;6.70;99.90;;;;;;6157343;23;20092;-91
2022/03/02 11:10:51;;;;;;;45.80;21.52;;;6.70;99.90;;;;;;6111176;23;20068;-91
2022/03/02 11:13:40;;;;;;;44.13;22.10;;;6.90;99.90;;;;;;6156788;23;20013;-91
2022/03/02 11:16:33;;;;;;;45.17;22.17;;;6.90;99.90;;;;;;6155082;23;20017;-92
2022/03/02 11:19:13;;;;;;;42.22;21.38;;;7.00;99.90;;;;;;6155287;23;20017;-92
2022/03/02 11:21:50;;;;;;;40.90;22.55;;;7.00;99.90;;;;;;6156639;23;20022;-92
2022/03/02 11:24:26;;;;;;;44.25;23.65;;;7.00;99.90;;;;;;6156337;23;20105;-91
2022/03/02 11:27:04;;;;;;;42.75;22.33;;;7.00;99.90;;;;;;6108452;23;20100;-91
2022/03/02 11:29:51;;;;;;;39.22;21.10;;;7.00;99.90;;;;;;6109509;23;20513;-90
2022/03/02 11:32:57;;;;;;;41.55;21.52;;;7.00;99.90;;;;;;6134328;23;20023;-91
2022/03/02 11:37:09;;;;;;;;;;;;;;;;;;;;;
2022/03/02 12:17:06;;;;;;;42.70;20.63;;;7.70;99.90;;;;;;6156634;23;20440;-90
2022/03/02 12:52:25;;;;;;;;;;;;;;;;;;;;;
2022/03/02 14:39:03;;;;;;;48.78;23.40;;;8.90;99.90;;;;;;6156259;23;20032;-91
2022/03/02 14:46:20;;;;;;;43.15;21.92;;;9.40;99.90;;;;;;6111206;23;20539;-92
2022/03/02 14:49:14;;;;;;;46.83;23.60;;;9.60;99.90;;;;;;6082385;23;20002;-94
2022/03/02 14:51:45;;;;;;;50.25;23.88;;;9.20;99.90;;;;;;6075458;23;20029;-89
2022/03/02 14:54:13;;;;;;;40.88;21.63;;;9.20;99.90;;;;;;6123828;23;20018;-90
2022/03/02 14:57:05;;;;;;;49.80;24.60;;;9.30;99.90;;;;;;6100603;23;20350;-88
2022/03/02 14:59:32;;;;;;;46.90;25.02;;;9.40;99.90;;;;;;6099941;23;20022;-91
2022/03/02 15:02:06;;;;;;;52.70;24.20;;;9.30;99.90;;;;;;6098797;23;20026;-90
2022/03/02 15:04:33;;;;;;;47.67;23.88;;;9.20;99.90;;;;;;6076268;23;20100;-91
2022/03/02 15:07:00;;;;;;;46.40;23.75;;;9.10;99.90;;;;;;6075601;23;20026;-91
2022/03/02 15:09:27;;;;;;;51.47;24.65;;;9.00;99.90;;;;;;6086450;23;20052;-90
2022/03/02 15:11:54;;;;;;;52.63;25.05;;;9.20;99.90;;;;;;6106011;23;20025;-90
2022/03/02 15:17:12;;;;;;;47.95;24.67;;;9.40;99.90;;;;;;6154683;23;20089;-90
2022/03/02 15:19:47;;;;;;;43.97;24.38;;;9.20;99.90;;;;;;6106119;23;20025;-91
2022/03/02 15:22:21;;;;;;;49.03;25.27;;;9.40;99.90;;;;;;6154298;23;20031;-90
2022/03/02 15:24:52;;;;;;;47.20;24.05;;;9.50;99.90;;;;;;6156559;23;20028;-90
2022/03/02 15:27:22;;;;;;;51.00;23.48;;;8.90;99.90;;;;;;6155639;23;20048;-90
2022/03/02 15:29:49;;;;;;;44.47;22.67;;;8.90;99.90;;;;;;6155282;23;20025;-91
2022/03/02 15:32:21;;;;;;;49.78;24.40;;;9.00;99.90;;;;;;6106175;23;20076;-90
2022/03/02 15:34:59;;;;;;;48.73;23.13;;;8.90;99.90;;;;;;6130710;23;20022;-90
2022/03/02 15:38:20;;;;;;;;;;;;;;;;;;;;;
2022/03/02 15:41:22;;;;;;;42.95;21.92;;;8.90;99.90;;;;;;6155439;23;20026;-84
2022/03/02 15:44:11;;;;;;;50.55;23.63;;;8.90;99.90;;;;;;6155519;23;20079;-88
2022/03/02 15:46:48;;;;;;;43.08;21.67;;;9.00;99.90;;;;;;6155438;23;20025;-88
2022/03/02 15:49:16;;;;;;;45.50;21.60;;;9.30;99.90;;;;;;6156082;23;20024;-86
2022/03/02 15:51:43;;;;;;;38.95;20.92;;;9.30;99.90;;;;;;6156835;23;20017;-84
2022/03/02 15:54:14;;;;;;;43.08;22.02;;;9.20;99.90;;;;;;6156071;23;20018;-88
2022/03/02 15:56:54;;;;;;;45.33;20.38;;;9.00;99.90;;;;;;6131855;23;20021;-86
2022/03/02 15:59:22;;;;;;;38.78;21.00;;;9.40;99.90;;;;;;6156191;23;20014;-89
2022/03/02 16:01:50;;;;;;;49.05;23.75;;;9.40;99.90;;;;;;6130990;23;20021;-84
2022/03/02 16:04:17;;;;;;;44.13;21.88;;;9.00;99.90;;;;;;6131151;23;20060;-87
2022/03/02 16:06:58;;;;;;;54.00;24.17;;;9.10;99.90;;;;;;6156244;23;20434;-89
2022/03/02 16:09:25;;;;;;;45.30;22.73;;;9.10;99.90;;;;;;6156044;23;20438;-85
2022/03/02 16:11:52;;;;;;;37.47;21.70;;;9.30;99.90;;;;;;6155850;23;20024;-87
2022/03/02 16:14:19;;;;;;;38.33;19.92;;;9.10;99.90;;;;;;6156620;23;20018;-86
2022/03/02 16:16:50;;;;;;;42.95;22.27;;;9.30;99.90;;;;;;6130127;23;20069;-85
2022/03/02 16:19:25;;;;;;;45.05;22.88;;;8.80;99.90;;;;;;6130237;23;20020;-89
2022/03/02 16:27:11;;;;;;;40.65;21.00;;;9.00;99.90;;;;;;6158491;23;20353;-91
2022/03/02 16:34:35;;;;;;;37.10;19.30;;;8.80;99.90;;;;;;5953511;24;20100;-91
2022/03/02 16:38:06;;;;;;;39.30;20.08;;;8.80;99.90;;;;;;5932394;24;20112;-91
2022/03/02 16:54:15;;;;;;;37.47;17.58;;;9.00;99.90;;;;;;6066282;23;20059;-89
2022/03/02 16:57:15;;;;;;;32.67;16.80;;;9.00;99.90;;;;;;6084668;23;20137;-89
2022/03/02 17:00:21;;;;;;;38.05;18.63;;;8.90;99.90;;;;;;6128942;23;20026;-89
2022/03/02 17:03:29;;;;;;;45.60;21.70;;;9.00;99.90;;;;;;6053266;23;20031;-89
2022/03/02 17:06:48;;;;;;;36.72;18.65;;;8.60;99.90;;;;;;6122692;23;20042;-89
2022/03/02 17:14:33;;;;;;;40.67;18.77;;;8.50;99.90;;;;;;6151068;23;20029;-90
2022/03/02 17:40:34;;;;;;;41.58;22.10;;;7.50;99.90;;;;;;6125982;23;20109;-90
2022/03/02 17:44:04;;;;;;;36.90;18.63;;;7.40;99.90;;;;;;6185675;23;20017;-90
2022/03/02 17:47:56;;;;;;;47.97;23.80;;;7.40;99.90;;;;;;6184371;23;20325;-89
2022/03/02 17:51:05;;;;;;;44.38;22.05;;;7.30;99.90;;;;;;6156283;23;20017;-90
2022/03/02 17:54:42;;;;;;;49.88;22.15;;;7.30;99.90;;;;;;6169767;23;20028;-91
2022/03/02 18:02:36;;;;;;;;;;;;;;;;;;;;;
2022/03/02 18:05:53;;;;;;;47.90;23.50;;;7.00;99.90;;;;;;6152589;23;20026;-92
2022/03/02 18:13:07;;;;;;;46.20;22.23;;;7.00;99.90;;;;;;6040815;23;20475;-91
2022/03/02 18:17:04;;;;;;;48.10;23.73;;;6.90;99.90;;;;;;6069878;23;20098;-90
2022/03/02 18:26:10;;;;;;;53.75;24.38;;;6.80;99.90;;;;;;6125791;23;20465;-91
2022/03/02 18:48:25;;;;;;;55.95;25.67;;;6.60;99.90;;;;;;6128418;23;20049;-91
2022/03/02 18:56:07;;;;;;;55.35;24.63;;;6.50;99.90;;;;;;6098197;23;20017;-89
2022/03/02 18:58:46;;;;;;;58.22;23.83;;;6.60;99.90;;;;;;6118667;23;20042;-89
2022/03/02 19:24:56;;;;;;;52.00;21.20;;;6.30;99.90;;;;;;6186371;23;20092;-90
2022/03/02 19:46:08;;;;;;;50.33;23.38;;;6.20;99.90;;;;;;6014022;23;20047;-89
2022/03/02 19:57:02;;;;;;;45.47;22.13;;;6.10;99.90;;;;;;6186811;23;20074;-91
2022/03/02 20:00:45;;;;;;;52.83;23.17;;;6.10;99.90;;;;;;6155447;23;20032;-90
2022/03/02 20:14:20;;;;;;;56.20;25.15;;;6.00;99.90;;;;;;6126690;23;20029;-89
2022/03/02 20:17:19;;;;;;;54.45;23.80;;;6.00;99.90;;;;;;6078031;23;20110;-88
2022/03/02 20:25:31;;;;;;;52.47;23.92;;;5.90;99.90;;;;;;6127197;23;20033;-87
2022/03/02 20:46:05;;;;;;;49.40;23.33;;;5.80;99.90;;;;;;5980824;24;20011;-89
2022/03/02 20:52:52;;;;;;;55.28;24.90;;;5.90;99.90;;;;;;5953042;24;20051;-91
2022/03/02 20:55:54;;;;;;;55.20;24.85;;;5.90;99.90;;;;;;5930690;24;20089;-92
2022/03/02 21:01:51;;;;;;;47.53;23.20;;;5.90;99.90;;;;;;6152640;23;20108;-91
2022/03/02 21:21:29;;;;;;;42.72;20.38;;;5.90;99.90;;;;;;6155094;23;20861;-90
2022/03/02 21:24:21;;;;;;;49.30;24.30;;;5.90;99.90;;;;;;6103871;23;20061;-90
2022/03/02 21:27:42;;;;;;;58.35;23.77;;;5.90;99.90;;;;;;6131220;23;20349;-90
2022/03/02 21:34:44;;;;;;;45.72;22.00;;;5.60;99.90;;;;;;6063787;23;20097;-88
2022/03/02 21:37:17;;;;;;;34.95;16.80;;;5.70;99.90;;;;;;6041164;23;20015;-89
2022/03/02 21:40:36;;;;;;;52.55;23.63;;;5.90;99.90;;;;;;6018566;23;20015;-89
2022/03/02 22:17:52;;;;;;;46.20;21.75;;;5.30;99.90;;;;;;6128413;23;20393;-90
2022/03/02 22:21:32;;;;;;;47.45;23.00;;;5.30;99.90;;;;;;6128320;23;20461;-90
2022/03/02 22:28:48;;;;;;;53.35;24.70;;;5.20;99.90;;;;;;6125271;23;20466;-90
2022/03/02 22:32:15;;;;;;;53.72;24.17;;;5.30;99.90;;;;;;6081448;23;20032;-90
2022/03/02 22:35:24;;;;;;;40.08;18.80;;;5.40;99.90;;;;;;6119247;23;20026;-91
2022/03/02 22:38:42;;;;;;;51.72;22.65;;;5.40;99.90;;;;;;6100340;23;20029;-89
2022/03/02 22:42:04;;;;;;;34.65;18.17;;;5.30;99.90;;;;;;6084785;23;20414;-90
2022/03/02 22:44:58;;;;;;;44.35;21.45;;;5.50;99.90;;;;;;6080509;23;20017;-90
2022/03/02 22:48:02;;;;;;;45.80;20.40;;;5.20;99.90;;;;;;6081992;23;20049;-90
2022/03/02 22:50:56;;;;;;;35.75;18.65;;;5.20;99.90;;;;;;6081949;23;20109;-90
2022/03/02 22:57:55;;;;;;;44.50;23.70;;;5.20;99.90;;;;;;6125035;23;20096;-90
2022/03/02 23:02:12;;;;;;;44.72;21.45;;;5.30;99.90;;;;;;6102226;23;20354;-90
2022/03/02 23:15:31;;;;;;;43.58;19.92;;;5.30;99.90;;;;;;6124334;23;20058;-90
2022/03/02 23:18:23;;;;;;;49.70;22.38;;;5.30;99.90;;;;;;6155676;23;20017;-90
2022/03/02 23:25:03;;;;;;;36.30;17.08;;;5.30;99.90;;;;;;6068919;23;20026;-89
2022/03/02 23:28:18;;;;;;;42.20;17.73;;;5.30;99.90;;;;;;6048758;23;20022;-90
2022/03/02 23:31:55;;;;;;;40.00;18.83;;;5.30;99.90;;;;;;6069605;23;20071;-90
2022/03/02 23:56:52;;;;;;;;;;;;;;;;;;;;;
